createdAt,value
2023-05-07T00:04:38.335Z,9.93
2023-05-07T00:09:42.290Z,14.48
2023-05-07T00:14:46.944Z,14.75
2023-05-07T00:19:51.941Z,8.50
2023-05-07T00:24:55.710Z,10.70
2023-05-07T00:29:59.058Z,10.57
2023-05-07T00:35:04.008Z,12.50
2023-05-07T00:40:09.962Z,11.23
2023-05-07T00:45:13.799Z,11.95
2023-05-07T00:50:20.586Z,12.02
2023-05-07T00:55:25.266Z,14.07
2023-05-07T01:00:29.277Z,11.43
2023-05-07T01:05:34.914Z,13.25
2023-05-07T01:10:38.797Z,12.20
2023-05-07T01:15:42.923Z,15.07
2023-05-07T01:20:48.138Z,15.32
2023-05-07T01:25:56.887Z,16.17
2023-05-07T01:31:07.424Z,13.77
2023-05-07T01:36:14.106Z,17.33
2023-05-07T01:46:22.934Z,15.90
2023-05-07T01:51:26.557Z,18.25
2023-05-07T01:56:31.223Z,19.10
2023-05-07T02:01:35.190Z,22.85
2023-05-07T02:06:39.062Z,17.35
2023-05-07T02:11:45.904Z,15.15
2023-05-07T02:16:50.687Z,19.20
2023-05-07T02:21:54.245Z,20.02
2023-05-07T02:27:00.046Z,17.15
2023-05-07T02:32:03.688Z,18.48
2023-05-07T02:37:07.258Z,18.58
2023-05-07T02:42:12.296Z,19.58
2023-05-07T02:47:17.869Z,17.77
2023-05-07T02:52:22.809Z,16.50
2023-05-07T02:57:27.853Z,19.02
2023-05-07T03:02:31.797Z,19.10
2023-05-07T03:07:35.916Z,15.13
2023-05-07T03:12:41.074Z,17.58
2023-05-07T03:17:45.914Z,17.83
2023-05-07T03:22:49.581Z,15.75
2023-05-07T03:27:54.731Z,17.38
2023-05-07T03:33:02.037Z,18.05
2023-05-07T03:38:06.189Z,16.27
2023-05-07T03:43:14.060Z,22.95
2023-05-07T03:48:22.772Z,15.57
2023-05-07T03:53:28.505Z,16.73
2023-05-07T03:58:33.749Z,20.13
2023-05-07T04:03:42.437Z,17.40
2023-05-07T04:08:46.367Z,16.88
2023-05-07T04:13:51.993Z,20.07
2023-05-07T04:18:58.352Z,17.88
2023-05-07T04:24:02.245Z,19.23
2023-05-07T04:29:07.482Z,20.17
2023-05-07T04:34:12.331Z,19.00
2023-05-07T04:39:16.364Z,19.02
2023-05-07T04:44:24.451Z,16.38
2023-05-07T04:49:28.277Z,22.42
2023-05-07T04:54:33.353Z,17.08
2023-05-07T04:59:38.694Z,21.45
2023-05-07T05:04:42.446Z,18.45
2023-05-07T05:09:46.713Z,19.25
2023-05-07T05:14:52.389Z,14.25
2023-05-07T05:19:56.739Z,15.10
2023-05-07T05:25:02.080Z,15.13
2023-05-07T05:30:08.897Z,12.90
2023-05-07T05:35:13.569Z,11.38
2023-05-07T05:40:18.897Z,12.90
2023-05-07T05:45:24.585Z,11.70
2023-05-07T05:50:28.517Z,12.55
2023-05-07T05:55:33.847Z,11.10
2023-05-07T06:00:38.837Z,10.63
2023-05-07T06:05:44.026Z,12.32
2023-05-07T06:10:47.991Z,10.73
2023-05-07T06:15:54.254Z,12.73
2023-05-07T06:20:58.282Z,10.88
2023-05-07T06:26:05.821Z,17.48
2023-05-07T06:31:18.484Z,11.95
2023-05-07T06:36:28.490Z,13.48
2023-05-07T06:41:35.968Z,12.57
2023-05-07T06:46:46.448Z,14.00
2023-05-07T06:56:55.472Z,12.65
2023-05-07T07:02:03.346Z,11.98
2023-05-07T07:07:07.124Z,12.25
2023-05-07T07:12:11.102Z,12.13
2023-05-07T07:17:18.376Z,12.68
2023-05-07T07:22:22.222Z,12.52
2023-05-07T07:27:26.096Z,11.25
2023-05-07T07:32:31.254Z,10.23
2023-05-07T07:37:35.006Z,6.25
2023-05-07T07:42:38.585Z,9.90
2023-05-07T07:47:43.856Z,7.32
2023-05-07T07:52:47.632Z,6.80
2023-05-07T07:57:53.460Z,8.63
2023-05-07T08:02:59.460Z,6.95
2023-05-07T08:08:08.342Z,8.63
2023-05-07T08:13:14.026Z,5.78
2023-05-07T08:18:20.650Z,5.75
2023-05-07T08:23:25.320Z,5.70
2023-05-07T08:28:28.784Z,5.60
2023-05-07T08:33:33.486Z,7.32
2023-05-07T08:38:36.836Z,8.07
2023-05-07T08:43:43.274Z,8.15
2023-05-07T08:48:50.881Z,6.53
2023-05-07T08:53:54.536Z,7.18
2023-05-07T08:59:06.518Z,6.70
2023-05-07T09:04:11.918Z,6.20
2023-05-07T09:09:20.018Z,7.38
2023-05-07T09:14:24.619Z,6.35
2023-05-07T09:19:30.880Z,6.93
2023-05-07T09:24:39.446Z,7.20
2023-05-07T09:29:46.776Z,6.35
2023-05-07T09:34:54.552Z,7.30
2023-05-07T09:40:01.307Z,9.15
2023-05-07T09:45:09.319Z,7.75
2023-05-07T09:50:18.397Z,7.55
2023-05-07T09:55:23.292Z,7.43
2023-05-07T10:00:30.285Z,7.28
2023-05-07T10:05:45.976Z,10.10
2023-05-07T10:10:51.949Z,7.10
2023-05-07T10:16:00.574Z,8.60
2023-05-07T10:21:14.084Z,6.78
2023-05-07T10:26:19.884Z,7.40
2023-05-07T10:31:41.559Z,5.57
2023-05-07T10:36:47.776Z,5.97
2023-05-07T10:41:52.266Z,4.60
2023-05-07T10:47:10.511Z,5.28
2023-05-07T10:52:21.964Z,5.85
2023-05-07T10:57:38.447Z,5.68
2023-05-07T11:03:08.473Z,7.53
2023-05-07T11:08:20.972Z,8.65
2023-05-07T11:13:47.804Z,7.60
2023-05-07T11:19:07.724Z,6.57
2023-05-07T11:24:20.355Z,8.20
2023-05-07T11:29:30.264Z,6.65
2023-05-07T11:34:40.819Z,6.43
2023-05-07T11:39:45.905Z,7.50
2023-05-07T11:44:50.607Z,7.10
2023-05-07T11:49:56.267Z,7.80
2023-05-07T11:55:02.480Z,6.25
2023-05-07T12:00:07.554Z,8.65
2023-05-07T12:05:17.113Z,8.63
2023-05-07T12:10:22.775Z,5.80
2023-05-07T12:15:26.437Z,6.88
2023-05-07T12:20:30.348Z,7.78
2023-05-07T12:25:36.984Z,9.18
2023-05-07T12:30:41.157Z,6.20
2023-05-07T12:35:45.649Z,8.18
2023-05-07T12:40:53.392Z,7.80
2023-05-07T12:45:58.280Z,8.45
2023-05-07T12:51:03.813Z,7.95
2023-05-07T12:56:09.416Z,5.70
2023-05-07T13:01:16.815Z,5.43
2023-05-07T13:06:20.601Z,8.73
2023-05-07T13:11:25.341Z,6.38
2023-05-07T13:16:29.156Z,5.32
2023-05-07T13:21:32.946Z,5.93
2023-05-07T13:26:37.980Z,5.53
2023-05-07T13:31:44.230Z,8.10
2023-05-07T13:36:48.107Z,5.65
2023-05-07T13:41:53.140Z,4.10
2023-05-07T13:46:56.945Z,3.70
2023-05-07T13:52:00.571Z,4.63
2023-05-07T13:57:05.762Z,4.70
2023-05-07T14:07:13.912Z,3.70
2023-05-07T14:12:19.147Z,4.05
2023-05-07T14:22:28.282Z,4.10
2023-05-07T14:27:33.232Z,4.43
2023-05-07T14:32:37.066Z,3.38
2023-05-07T14:37:40.726Z,4.57
2023-05-07T14:42:45.597Z,2.83
2023-05-07T14:47:49.171Z,3.20
2023-05-07T14:52:52.360Z,5.75
2023-05-07T14:57:58.633Z,5.43
2023-05-07T15:03:08.958Z,3.45
2023-05-07T15:08:13.039Z,3.95
2023-05-07T15:13:18.264Z,3.50
2023-05-07T15:23:27.561Z,3.07
2023-05-07T15:28:32.948Z,4.45
2023-05-07T15:33:37.707Z,3.25
2023-05-07T15:38:41.785Z,5.40
2023-05-07T15:43:50.725Z,3.95
2023-05-07T15:48:55.071Z,4.15
2023-05-07T15:53:58.819Z,3.75
2023-05-07T15:59:04.489Z,4.32
2023-05-07T16:04:10.300Z,4.63
2023-05-07T16:09:13.958Z,5.13
2023-05-07T16:14:18.853Z,6.35
2023-05-07T16:19:23.757Z,8.32
2023-05-07T16:24:27.527Z,6.28
2023-05-07T16:29:32.470Z,5.38
2023-05-07T16:34:35.948Z,5.47
2023-05-07T16:39:39.986Z,6.63
2023-05-07T16:44:44.978Z,4.50
2023-05-07T16:49:49.020Z,7.40
2023-05-07T16:54:52.650Z,4.30
2023-05-07T17:00:00.552Z,7.07
2023-05-07T17:05:06.570Z,5.40
2023-05-07T17:10:11.188Z,6.60
2023-05-07T17:15:16.326Z,4.57
2023-05-07T17:20:20.118Z,5.72
2023-05-07T17:25:24.817Z,3.78
2023-05-07T17:30:29.878Z,3.72
2023-05-07T17:35:33.597Z,7.20
2023-05-07T17:40:37.108Z,5.03
2023-05-07T17:45:42.321Z,7.05
2023-05-07T17:55:49.526Z,5.00
2023-05-07T18:00:55.419Z,6.63
2023-05-07T18:05:59.256Z,13.05
2023-05-07T18:11:02.870Z,7.75
2023-05-07T18:16:08.393Z,6.80
2023-05-07T18:21:15.698Z,4.40
2023-05-07T18:26:19.863Z,6.45
2023-05-07T18:31:24.869Z,7.32
2023-05-07T18:36:28.502Z,7.05
2023-05-07T18:41:32.075Z,7.85
2023-05-07T18:46:37.350Z,6.47
2023-05-07T18:51:40.965Z,7.40
2023-05-07T18:56:44.525Z,7.50
2023-05-07T19:01:49.573Z,8.63
2023-05-07T19:06:53.161Z,8.20
2023-05-07T19:11:57.344Z,7.60
2023-05-07T19:17:02.148Z,7.60
2023-05-07T19:22:05.837Z,7.73
2023-05-07T19:27:09.449Z,6.40
2023-05-07T19:32:14.657Z,7.00
2023-05-07T19:37:18.261Z,6.32
2023-05-07T19:42:21.684Z,8.00
2023-05-07T19:47:27.551Z,7.32
2023-05-07T19:52:31.203Z,7.45
2023-05-07T19:57:34.752Z,10.13
2023-05-07T20:02:40.569Z,7.13
2023-05-07T20:07:46.335Z,6.03
2023-05-07T20:12:50.550Z,6.03
2023-05-07T20:17:55.561Z,8.75
2023-05-07T20:22:59.377Z,11.07
2023-05-07T20:28:03.371Z,7.75
2023-05-07T20:33:08.831Z,6.07
2023-05-07T20:38:12.545Z,8.85
2023-05-07T20:43:16.134Z,8.75
2023-05-07T20:48:21.174Z,8.45
2023-05-07T20:53:24.994Z,8.05
2023-05-07T20:58:30.002Z,7.00
2023-05-07T21:03:35.125Z,8.07
2023-05-07T21:08:38.763Z,9.10
2023-05-07T21:13:42.465Z,7.15
2023-05-07T21:18:47.499Z,6.55
2023-05-07T21:23:51.173Z,10.02
2023-05-07T21:28:54.528Z,10.43
2023-05-07T21:33:59.180Z,6.85
2023-05-07T21:39:02.852Z,8.00
2023-05-07T21:44:06.941Z,9.88
2023-05-07T21:49:12.470Z,9.88
2023-05-07T21:54:17.185Z,8.60
2023-05-07T21:59:20.661Z,7.27
2023-05-07T22:04:25.536Z,9.32
2023-05-07T22:09:28.779Z,12.70
2023-05-07T22:14:31.935Z,7.63
2023-05-07T22:19:36.512Z,9.65
2023-05-07T22:24:39.751Z,9.13
2023-05-07T22:29:42.962Z,10.73
2023-05-07T22:34:47.510Z,10.02
2023-05-07T22:39:50.829Z,8.18
2023-05-07T22:44:54.140Z,9.82
2023-05-07T22:49:58.797Z,8.90
2023-05-07T22:55:02.626Z,8.60
2023-05-07T23:00:08.100Z,7.97
2023-05-07T23:05:13.162Z,11.05
2023-05-07T23:10:16.832Z,9.73
2023-05-07T23:15:21.572Z,8.90
2023-05-07T23:20:26.574Z,9.10
2023-05-07T23:25:30.453Z,6.55
2023-05-07T23:30:34.795Z,8.07
2023-05-07T23:35:39.395Z,11.77
2023-05-07T23:40:42.708Z,8.60
2023-05-07T23:45:46.011Z,8.02
2023-05-07T23:50:50.555Z,9.45
2023-05-07T23:55:53.770Z,8.60
